createdAt,value
2022-11-16T00:13:08.945Z,987.94
2022-11-16T00:42:19.375Z,987.72
2022-11-16T01:11:29.260Z,987.84
2022-11-16T01:40:40.888Z,988.16
2022-11-16T02:09:48.879Z,987.98
2022-11-16T02:39:00.327Z,988.09
2022-11-16T03:08:09.899Z,988.22
2022-11-16T03:37:15.487Z,988.08
2022-11-16T04:06:21.827Z,988.13
2022-11-16T04:35:31.892Z,988.25
2022-11-16T05:04:37.841Z,988.46
2022-11-16T05:33:45.197Z,988.47
2022-11-16T06:02:55.066Z,988.69
2022-11-16T06:31:55.191Z,988.94
2022-11-16T07:00:48.887Z,989.13
2022-11-16T07:29:32.825Z,989.33
2022-11-16T07:58:44.780Z,989.48
2022-11-16T08:27:41.772Z,989.68
2022-11-16T08:56:52.660Z,989.55
2022-11-16T09:25:54.425Z,989.57
2022-11-16T09:55:04.582Z,989.63
2022-11-16T10:24:09.143Z,989.46
2022-11-16T10:53:13.213Z,989.11
2022-11-16T11:22:22.222Z,988.64
2022-11-16T11:51:26.931Z,988.51
2022-11-16T12:20:38.312Z,988.1
2022-11-16T12:49:38.800Z,987.66
2022-11-16T13:18:46.486Z,987.26
2022-11-16T13:47:46.906Z,987.15
2022-11-16T14:16:51.509Z,986.96
2022-11-16T14:45:54.716Z,986.73
2022-11-16T15:14:52.984Z,986.41
2022-11-16T15:44:14.378Z,986.17
2022-11-16T16:12:20.783Z,985.89
2022-11-16T16:41:25.199Z,985.8
2022-11-16T17:09:49.787Z,985.87
2022-11-16T17:38:47.973Z,985.44
2022-11-16T18:07:46.711Z,984.71
2022-11-16T18:36:49.748Z,984.38
2022-11-16T19:05:51.664Z,984.76
2022-11-16T19:34:52.806Z,984.14
2022-11-16T20:03:53.601Z,984.44
2022-11-16T20:32:55.805Z,984.13
2022-11-16T21:01:59.453Z,984.19
2022-11-16T21:30:58.020Z,984.01
2022-11-16T22:00:01.426Z,983.64
2022-11-16T22:29:05.659Z,983.03
2022-11-16T22:58:09.579Z,982.55
2022-11-16T23:27:16.057Z,982.1
2022-11-16T23:56:25.340Z,981.61
